createdAt,value
2023-05-12T00:00:04.249Z,18.88
2023-05-12T00:01:03.855Z,18.81
2023-05-12T00:02:03.930Z,19.12
2023-05-12T00:03:04.955Z,19.06
2023-05-12T00:05:03.884Z,18.94
2023-05-12T00:06:04.039Z,18.94
2023-05-12T00:07:04.001Z,18.94
2023-05-12T00:10:04.743Z,18.56
2023-05-12T00:12:04.173Z,18.19
2023-05-12T00:13:04.356Z,18.56
2023-05-12T00:15:03.439Z,18.12
2023-05-12T00:16:03.581Z,18.00
2023-05-12T00:17:04.085Z,18.00
2023-05-12T00:18:04.210Z,17.88
2023-05-12T00:19:03.821Z,17.88
2023-05-12T00:20:03.627Z,17.75
2023-05-12T00:21:03.770Z,18.25
2023-05-12T00:23:04.328Z,18.44
2023-05-12T00:25:03.833Z,18.31
2023-05-12T00:26:04.001Z,18.25
2023-05-12T00:27:03.778Z,18.19
2023-05-12T00:28:03.540Z,18.12
2023-05-12T00:29:04.015Z,18.44
2023-05-12T00:31:04.330Z,18.81
2023-05-12T00:32:04.174Z,18.94
2023-05-12T00:33:04.228Z,18.81
2023-05-12T00:36:03.629Z,18.75
2023-05-12T00:37:04.187Z,18.94
2023-05-12T00:38:03.920Z,18.75
2023-05-12T00:39:03.931Z,18.69
2023-05-12T00:40:03.940Z,18.50
2023-05-12T00:41:03.700Z,18.62
2023-05-12T00:42:03.607Z,18.56
2023-05-12T00:43:03.727Z,18.50
2023-05-12T00:47:04.194Z,19.56
2023-05-12T00:48:03.826Z,19.44
2023-05-12T00:49:03.845Z,19.19
2023-05-12T00:50:03.778Z,19.31
2023-05-12T00:53:03.632Z,19.12
2023-05-12T00:54:04.176Z,18.75
2023-05-12T00:56:04.016Z,18.88
2023-05-12T00:57:03.880Z,18.81
2023-05-12T00:59:04.089Z,18.94
2023-05-12T01:01:04.383Z,18.88
2023-05-12T01:02:04.026Z,18.69
2023-05-12T01:03:03.772Z,18.69
2023-05-12T01:04:03.460Z,18.56
2023-05-12T01:05:04.209Z,18.50
2023-05-12T01:06:03.860Z,18.44
2023-05-12T01:07:04.330Z,18.44
2023-05-12T01:08:04.031Z,18.44
2023-05-12T01:10:03.540Z,18.31
2023-05-12T01:11:04.238Z,18.19
2023-05-12T01:12:04.340Z,17.94
2023-05-12T01:13:04.016Z,17.75
2023-05-12T01:14:03.685Z,17.62
2023-05-12T01:16:03.857Z,17.44
2023-05-12T01:17:04.537Z,17.38
2023-05-12T01:18:03.627Z,18.12
2023-05-12T01:19:03.911Z,18.25
2023-05-12T01:20:04.172Z,18.31
2023-05-12T01:21:04.172Z,18.19
2023-05-12T01:22:03.618Z,18.12
2023-05-12T01:23:04.330Z,18.06
2023-05-12T01:24:04.041Z,17.94
2023-05-12T01:25:03.929Z,17.81
2023-05-12T01:27:03.539Z,17.75
2023-05-12T01:29:04.286Z,18.06
2023-05-12T01:30:03.867Z,18.00
2023-05-12T01:31:03.571Z,17.75
2023-05-12T01:33:03.614Z,17.44
2023-05-12T01:35:03.539Z,17.25
2023-05-12T01:36:03.705Z,17.12
2023-05-12T01:39:04.400Z,17.00
2023-05-12T01:41:03.451Z,16.94
2023-05-12T01:42:04.024Z,16.94
2023-05-12T01:44:04.191Z,17.00
2023-05-12T01:45:04.259Z,17.75
2023-05-12T01:46:04.360Z,17.56
2023-05-12T01:48:03.976Z,17.62
2023-05-12T01:49:03.614Z,17.62
2023-05-12T01:50:04.189Z,17.62
2023-05-12T01:52:04.254Z,17.69
2023-05-12T01:53:03.836Z,17.88
2023-05-12T01:55:03.686Z,18.31
2023-05-12T01:56:04.160Z,18.12
2023-05-12T01:57:04.324Z,18.06
2023-05-12T01:59:03.576Z,17.69
2023-05-12T02:00:04.170Z,17.69
2023-05-12T02:01:03.773Z,17.50
2023-05-12T02:02:04.305Z,17.38
2023-05-12T02:04:03.610Z,17.44
2023-05-12T02:05:03.605Z,17.44
2023-05-12T02:07:03.609Z,17.25
2023-05-12T02:08:04.169Z,17.25
2023-05-12T02:09:03.684Z,17.06
2023-05-12T02:11:03.600Z,17.00
2023-05-12T02:12:04.180Z,17.00
2023-05-12T02:14:03.868Z,17.00
2023-05-12T02:15:04.186Z,16.94
2023-05-12T02:16:04.231Z,16.88
2023-05-12T02:17:04.322Z,16.81
2023-05-12T02:18:03.993Z,16.75
2023-05-12T02:20:04.333Z,17.69
2023-05-12T02:21:03.936Z,17.94
2023-05-12T02:22:03.858Z,18.06
2023-05-12T02:23:03.923Z,18.38
2023-05-12T02:24:03.927Z,18.31
2023-05-12T02:25:03.850Z,18.25
2023-05-12T02:27:03.705Z,17.69
2023-05-12T02:28:03.618Z,17.56
2023-05-12T02:29:03.683Z,17.38
2023-05-12T02:30:04.434Z,17.38
2023-05-12T02:32:04.273Z,17.38
2023-05-12T02:33:04.046Z,17.38
2023-05-12T02:34:05.835Z,17.44
2023-05-12T02:35:03.565Z,17.38
2023-05-12T02:36:04.036Z,17.38
2023-05-12T02:38:03.613Z,17.44
2023-05-12T02:40:04.413Z,17.56
2023-05-12T02:41:04.012Z,17.69
2023-05-12T02:42:04.095Z,17.88
2023-05-12T02:43:03.549Z,17.88
2023-05-12T02:44:04.087Z,17.94
2023-05-12T02:45:03.875Z,18.00
2023-05-12T02:46:04.557Z,18.06
2023-05-12T02:47:04.178Z,18.31
2023-05-12T02:48:04.322Z,18.31
2023-05-12T02:49:03.952Z,18.31
2023-05-12T02:51:04.418Z,18.25
2023-05-12T02:52:04.271Z,18.19
2023-05-12T02:53:04.181Z,17.69
2023-05-12T02:54:04.326Z,17.44
2023-05-12T02:55:04.092Z,17.19
2023-05-12T02:57:04.427Z,17.25
2023-05-12T03:00:04.092Z,17.00
2023-05-12T03:01:10.530Z,17.06
2023-05-12T03:02:03.674Z,17.31
2023-05-12T03:03:03.767Z,17.19
2023-05-12T03:04:03.615Z,17.25
2023-05-12T03:05:04.326Z,17.19
2023-05-12T03:06:03.927Z,17.06
2023-05-12T03:07:03.626Z,16.94
2023-05-12T03:08:04.169Z,16.88
2023-05-12T03:10:04.334Z,16.69
2023-05-12T03:11:04.326Z,16.69
2023-05-12T03:12:04.342Z,16.56
2023-05-12T03:14:03.530Z,16.88
2023-05-12T03:15:03.687Z,17.44
2023-05-12T03:17:04.229Z,18.31
2023-05-12T03:18:04.004Z,18.25
2023-05-12T03:19:04.357Z,18.06
2023-05-12T03:20:03.544Z,18.19
2023-05-12T03:21:04.262Z,18.12
2023-05-12T03:23:03.528Z,18.12
2023-05-12T03:24:03.468Z,18.12
2023-05-12T03:26:03.932Z,17.94
2023-05-12T03:28:03.696Z,17.94
2023-05-12T03:29:04.324Z,17.94
2023-05-12T03:30:03.974Z,18.00
2023-05-12T03:31:04.101Z,18.06
2023-05-12T03:32:03.765Z,18.12
2023-05-12T03:33:04.568Z,18.25
2023-05-12T03:35:03.925Z,18.44
2023-05-12T03:37:03.616Z,18.56
2023-05-12T03:39:03.780Z,18.62
2023-05-12T03:41:03.448Z,18.75
2023-05-12T03:42:03.608Z,18.69
2023-05-12T03:43:04.248Z,18.94
2023-05-12T03:45:03.532Z,19.19
2023-05-12T03:46:04.253Z,19.19
2023-05-12T03:47:03.891Z,19.19
2023-05-12T03:48:03.727Z,19.19
2023-05-12T03:49:04.404Z,19.31
2023-05-12T03:51:03.629Z,19.44
2023-05-12T03:52:04.393Z,19.44
2023-05-12T03:53:04.011Z,19.56
2023-05-12T03:54:03.762Z,19.75
2023-05-12T03:55:03.775Z,19.81
2023-05-12T03:56:03.464Z,19.88
2023-05-12T03:58:03.606Z,20.12
2023-05-12T03:59:04.258Z,20.12
2023-05-12T04:00:04.317Z,20.00
2023-05-12T04:01:04.116Z,20.31
2023-05-12T04:02:03.894Z,20.38
2023-05-12T04:03:04.106Z,20.25
2023-05-12T04:04:03.724Z,20.25
2023-05-12T04:05:04.419Z,20.19
2023-05-12T04:07:03.715Z,20.06
2023-05-12T04:08:05.311Z,20.12
2023-05-12T04:09:03.849Z,20.00
2023-05-12T04:10:03.604Z,19.94
2023-05-12T04:11:03.692Z,19.88
2023-05-12T04:13:04.273Z,19.94
2023-05-12T04:15:03.628Z,20.38
2023-05-12T04:16:03.819Z,20.25
2023-05-12T04:17:04.411Z,20.19
2023-05-12T04:18:03.881Z,20.31
2023-05-12T04:19:04.406Z,20.38
2023-05-12T04:20:04.339Z,20.50
2023-05-12T04:21:03.959Z,20.56
2023-05-12T04:22:04.168Z,20.56
2023-05-12T04:23:04.198Z,20.50
2023-05-12T04:30:03.622Z,19.88
2023-05-12T04:33:03.561Z,19.56
2023-05-12T04:34:04.428Z,19.56
2023-05-12T04:35:04.187Z,19.56
2023-05-12T04:37:04.510Z,19.31
2023-05-12T04:38:04.030Z,19.44
2023-05-12T04:39:03.807Z,19.56
2023-05-12T04:40:04.416Z,19.75
2023-05-12T04:41:03.621Z,19.69
2023-05-12T04:42:04.336Z,19.75
2023-05-12T04:43:04.334Z,20.38
2023-05-12T04:44:04.349Z,20.00
2023-05-12T04:45:04.116Z,19.88
2023-05-12T04:46:04.020Z,19.94
2023-05-12T04:47:03.719Z,19.81
2023-05-12T04:48:04.477Z,19.69
2023-05-12T04:49:04.409Z,19.88
2023-05-12T04:50:04.415Z,20.12
2023-05-12T04:52:04.831Z,20.50
2023-05-12T04:53:03.603Z,20.75
2023-05-12T04:55:04.254Z,20.81
2023-05-12T04:56:03.447Z,20.88
2023-05-12T04:57:03.534Z,20.94
2023-05-12T04:58:03.541Z,20.88
2023-05-12T04:59:04.162Z,20.88
2023-05-12T05:00:03.770Z,20.94
2023-05-12T05:01:03.916Z,21.31
2023-05-12T05:02:03.541Z,21.56
2023-05-12T05:03:04.387Z,21.75
2023-05-12T05:04:04.263Z,21.69
2023-05-12T05:05:03.942Z,21.69
2023-05-12T05:06:04.421Z,21.69
2023-05-12T05:07:04.209Z,21.88
2023-05-12T05:08:03.776Z,22.06
2023-05-12T05:09:04.357Z,22.12
2023-05-12T05:10:04.183Z,22.06
2023-05-12T05:12:03.947Z,22.56
2023-05-12T05:14:04.176Z,22.25
2023-05-12T05:16:03.919Z,22.44
2023-05-12T05:17:03.752Z,22.38
2023-05-12T05:18:03.817Z,22.56
2023-05-12T05:19:06.320Z,22.50
2023-05-12T05:20:09.221Z,22.31
2023-05-12T05:21:04.066Z,22.25
2023-05-12T05:23:04.355Z,22.06
2023-05-12T05:24:04.087Z,22.12
2023-05-12T05:25:03.689Z,22.19
2023-05-12T05:26:04.447Z,22.25
2023-05-12T05:27:04.193Z,22.50
2023-05-12T05:28:03.970Z,22.62
2023-05-12T05:29:03.622Z,22.94
2023-05-12T05:31:04.213Z,23.00
2023-05-12T05:32:03.882Z,22.88
2023-05-12T05:33:03.652Z,22.75
2023-05-12T05:34:03.804Z,23.06
2023-05-12T05:35:07.798Z,22.75
2023-05-12T05:37:04.041Z,22.75
2023-05-12T05:38:04.105Z,23.12
2023-05-12T05:39:04.176Z,23.06
2023-05-12T05:41:04.500Z,23.19
2023-05-12T05:43:04.008Z,23.12
2023-05-12T05:45:03.602Z,23.31
2023-05-12T05:46:03.605Z,23.31
2023-05-12T05:48:04.516Z,23.56
2023-05-12T05:50:04.019Z,23.50
2023-05-12T05:52:03.616Z,23.50
2023-05-12T05:53:04.332Z,23.44
2023-05-12T05:55:04.126Z,23.38
2023-05-12T05:56:03.523Z,23.31
2023-05-12T05:57:03.530Z,23.38
2023-05-12T05:58:04.322Z,23.50
2023-05-12T06:00:04.056Z,23.69
2023-05-12T06:01:04.186Z,23.62
2023-05-12T06:02:03.912Z,23.62
2023-05-12T06:03:04.080Z,23.69
2023-05-12T06:04:04.121Z,23.62
2023-05-12T06:05:03.837Z,23.56
2023-05-12T06:06:03.930Z,23.75
2023-05-12T06:07:03.526Z,23.69
2023-05-12T06:08:04.275Z,23.81
2023-05-12T06:09:03.923Z,23.81
2023-05-12T06:12:04.490Z,24.06
2023-05-12T06:13:04.106Z,24.06
2023-05-12T06:14:03.602Z,24.12
2023-05-12T06:15:03.643Z,24.19
2023-05-12T06:16:03.849Z,24.50
2023-05-12T06:17:04.160Z,24.12
2023-05-12T06:18:04.353Z,23.94
2023-05-12T06:19:04.134Z,24.00
2023-05-12T06:21:03.784Z,23.81
2023-05-12T06:22:03.542Z,23.81
2023-05-12T06:23:04.186Z,23.94
2023-05-12T06:24:04.263Z,23.88
2023-05-12T06:25:04.341Z,24.12
2023-05-12T06:26:04.179Z,23.88
2023-05-12T06:27:03.792Z,23.81
2023-05-12T06:29:03.702Z,23.62
2023-05-12T06:30:04.430Z,23.50
2023-05-12T06:32:04.100Z,23.44
2023-05-12T06:33:03.827Z,23.25
2023-05-12T06:34:04.403Z,23.12
2023-05-12T06:35:04.195Z,23.38
2023-05-12T06:36:03.769Z,23.12
2023-05-12T06:37:04.522Z,22.81
2023-05-12T06:38:04.351Z,22.81
2023-05-12T06:39:04.367Z,22.56
2023-05-12T06:40:04.262Z,22.44
2023-05-12T06:42:03.936Z,22.38
2023-05-12T06:43:03.944Z,22.38
2023-05-12T06:44:03.795Z,22.38
2023-05-12T06:45:03.691Z,22.56
2023-05-12T06:47:04.339Z,23.12
2023-05-12T06:49:04.446Z,23.12
2023-05-12T06:50:04.251Z,23.06
2023-05-12T06:51:04.340Z,22.88
2023-05-12T06:53:03.618Z,23.19
2023-05-12T06:54:04.111Z,23.25
2023-05-12T06:56:03.951Z,23.62
2023-05-12T06:58:04.007Z,23.81
2023-05-12T07:00:03.608Z,24.38
2023-05-12T07:01:03.810Z,24.62
2023-05-12T07:02:03.550Z,24.75
2023-05-12T07:04:04.432Z,24.81
2023-05-12T07:05:04.240Z,24.44
2023-05-12T07:06:03.891Z,24.25
2023-05-12T07:07:03.927Z,24.00
2023-05-12T07:08:04.129Z,23.88
2023-05-12T07:09:03.930Z,23.75
2023-05-12T07:10:03.936Z,23.94
2023-05-12T07:11:03.530Z,24.19
2023-05-12T07:12:03.532Z,24.12
2023-05-12T07:13:04.338Z,24.06
2023-05-12T07:14:03.918Z,24.00
2023-05-12T07:15:03.704Z,23.81
2023-05-12T07:16:03.835Z,23.69
2023-05-12T07:18:04.219Z,23.88
2023-05-12T07:19:03.957Z,23.81
2023-05-12T07:20:04.113Z,23.81
2023-05-12T07:21:03.775Z,23.69
2023-05-12T07:22:03.762Z,23.62
2023-05-12T07:23:03.935Z,23.31
2023-05-12T07:24:03.702Z,23.12
2023-05-12T07:25:03.770Z,23.00
2023-05-12T07:26:03.868Z,23.12
2023-05-12T07:27:04.087Z,23.44
2023-05-12T07:28:04.089Z,23.62
2023-05-12T07:29:03.697Z,23.50
2023-05-12T07:30:03.625Z,23.00
2023-05-12T07:31:03.807Z,23.25
2023-05-12T07:32:03.527Z,23.38
2023-05-12T07:33:04.115Z,23.50
2023-05-12T07:34:03.914Z,23.50
2023-05-12T07:35:04.042Z,23.62
2023-05-12T07:36:03.699Z,23.62
2023-05-12T07:37:04.424Z,23.81
2023-05-12T07:38:03.772Z,23.88
2023-05-12T07:39:03.919Z,23.88
2023-05-12T07:40:03.856Z,23.94
2023-05-12T07:41:03.933Z,23.75
2023-05-12T07:42:04.094Z,23.81
2023-05-12T07:43:04.179Z,23.88
2023-05-12T07:45:03.765Z,24.44
2023-05-12T07:46:04.501Z,25.00
2023-05-12T07:47:03.976Z,25.12
2023-05-12T07:48:04.110Z,25.25
2023-05-12T07:49:04.171Z,25.19
2023-05-12T07:50:03.693Z,24.94
2023-05-12T07:51:03.770Z,25.06
2023-05-12T07:52:03.783Z,24.88
2023-05-12T07:53:04.526Z,24.94
2023-05-12T07:54:04.089Z,25.00
2023-05-12T07:56:04.453Z,24.75
2023-05-12T07:58:04.099Z,24.62
2023-05-12T08:01:03.533Z,24.62
2023-05-12T08:02:03.717Z,24.56
2023-05-12T08:03:03.981Z,24.62
2023-05-12T08:04:03.911Z,24.50
2023-05-12T08:05:03.778Z,24.38
2023-05-12T08:06:04.182Z,24.38
2023-05-12T08:07:03.933Z,24.50
2023-05-12T08:08:03.791Z,24.50
2023-05-12T08:09:04.332Z,24.62
2023-05-12T08:11:03.694Z,24.56
2023-05-12T08:12:04.423Z,24.56
2023-05-12T08:13:04.099Z,24.69
2023-05-12T08:14:04.024Z,24.56
2023-05-12T08:15:04.096Z,24.50
2023-05-12T08:16:04.099Z,24.56
2023-05-12T08:17:04.105Z,24.69
2023-05-12T08:18:03.648Z,25.00
2023-05-12T08:19:04.438Z,25.06
2023-05-12T08:20:04.247Z,24.88
2023-05-12T08:21:03.933Z,24.88
2023-05-12T08:22:03.538Z,24.88
2023-05-12T08:23:04.262Z,24.88
2023-05-12T08:24:03.933Z,24.94
2023-05-12T08:26:04.340Z,24.62
2023-05-12T08:27:04.420Z,24.75
2023-05-12T08:28:04.427Z,24.81
2023-05-12T08:30:03.617Z,24.94
2023-05-12T08:31:04.908Z,24.75
2023-05-12T08:32:04.180Z,25.25
2023-05-12T08:33:04.470Z,25.38
2023-05-12T08:34:10.100Z,25.56
2023-05-12T08:35:03.857Z,25.38
2023-05-12T08:36:03.537Z,25.12
2023-05-12T08:37:03.537Z,25.19
2023-05-12T08:38:04.255Z,25.12
2023-05-12T08:39:03.769Z,24.88
2023-05-12T08:40:03.775Z,24.56
2023-05-12T08:41:04.332Z,24.44
2023-05-12T08:42:04.011Z,24.19
2023-05-12T08:43:04.179Z,24.31
2023-05-12T08:44:04.250Z,24.12
2023-05-12T08:46:03.647Z,24.31
2023-05-12T08:47:04.179Z,24.44
2023-05-12T08:48:03.808Z,24.50
2023-05-12T08:49:05.235Z,24.69
2023-05-12T08:50:04.011Z,24.81
2023-05-12T08:51:04.085Z,24.75
2023-05-12T08:52:04.010Z,24.69
2023-05-12T08:55:03.823Z,24.69
2023-05-12T08:58:05.435Z,24.25
2023-05-12T08:59:04.179Z,24.25
2023-05-12T09:00:03.951Z,24.25
2023-05-12T09:01:03.688Z,24.12
2023-05-12T09:02:04.564Z,24.12
2023-05-12T09:04:03.889Z,24.12
2023-05-12T09:07:04.415Z,23.62
2023-05-12T09:08:04.243Z,23.62
2023-05-12T09:10:03.772Z,23.62
2023-05-12T09:11:03.558Z,23.56
2023-05-12T09:13:04.306Z,23.25
2023-05-12T09:14:04.171Z,23.19
2023-05-12T09:16:04.414Z,23.00
2023-05-12T09:18:03.890Z,23.00
2023-05-12T09:19:05.408Z,22.88
2023-05-12T09:20:04.184Z,22.81
2023-05-12T09:22:04.256Z,22.75
2023-05-12T09:23:04.417Z,22.69
2023-05-12T09:24:04.013Z,22.62
2023-05-12T09:25:03.854Z,22.56
2023-05-12T09:26:04.485Z,22.50
2023-05-12T09:27:04.107Z,22.50
2023-05-12T09:29:03.624Z,22.44
2023-05-12T09:30:04.263Z,22.31
2023-05-12T09:31:03.959Z,22.25
2023-05-12T09:32:04.264Z,22.31
2023-05-12T09:33:04.116Z,22.31
2023-05-12T09:34:03.929Z,22.38
2023-05-12T09:36:03.685Z,22.31
2023-05-12T09:37:04.419Z,22.12
2023-05-12T09:38:03.707Z,22.19
2023-05-12T09:40:03.945Z,22.12
2023-05-12T09:41:03.623Z,22.12
2023-05-12T09:42:04.281Z,22.19
2023-05-12T09:43:03.867Z,22.12
2023-05-12T09:44:03.860Z,22.00
2023-05-12T09:45:03.758Z,22.06
2023-05-12T09:46:03.916Z,22.06
2023-05-12T09:47:03.614Z,22.12
2023-05-12T09:48:04.416Z,22.12
2023-05-12T09:49:04.003Z,22.06
2023-05-12T09:50:03.800Z,22.06
2023-05-12T09:51:03.623Z,22.06
2023-05-12T09:52:04.207Z,22.06
2023-05-12T09:53:03.866Z,22.12
2023-05-12T09:54:05.123Z,22.19
2023-05-12T09:55:04.356Z,22.25
2023-05-12T09:56:04.541Z,22.38
2023-05-12T09:57:04.413Z,22.31
2023-05-12T09:58:04.101Z,22.50
2023-05-12T09:59:03.531Z,22.31
2023-05-12T10:00:06.063Z,22.25
2023-05-12T10:02:04.378Z,22.25
2023-05-12T10:03:04.042Z,22.19
2023-05-12T10:04:03.871Z,22.19
2023-05-12T10:06:05.110Z,22.06
2023-05-12T10:07:04.240Z,21.88
2023-05-12T10:08:04.327Z,21.94
2023-05-12T10:10:03.613Z,21.75
2023-05-12T10:11:04.413Z,21.75
2023-05-12T10:14:04.175Z,21.75
2023-05-12T10:15:03.833Z,21.75
2023-05-12T10:16:03.805Z,21.69
2023-05-12T10:17:04.133Z,21.75
2023-05-12T10:18:03.684Z,21.62
2023-05-12T10:19:04.516Z,21.69
2023-05-12T10:20:04.446Z,21.88
2023-05-12T10:22:03.726Z,22.00
2023-05-12T10:23:04.185Z,21.94
2023-05-12T10:24:03.884Z,22.00
2023-05-12T10:25:04.337Z,21.94
2023-05-12T10:26:03.858Z,21.75
2023-05-12T10:27:03.633Z,21.75
2023-05-12T10:28:04.164Z,21.88
2023-05-12T10:29:04.004Z,21.94
2023-05-12T10:30:04.187Z,21.88
2023-05-12T10:31:04.613Z,21.88
2023-05-12T10:33:04.056Z,21.88
2023-05-12T10:34:03.682Z,21.81
2023-05-12T10:35:03.751Z,21.81
2023-05-12T10:36:03.518Z,21.75
2023-05-12T10:37:04.084Z,21.62
2023-05-12T10:38:03.831Z,21.44
2023-05-12T10:39:04.255Z,21.44
2023-05-12T10:40:03.852Z,21.50
2023-05-12T10:41:03.838Z,21.56
2023-05-12T10:44:04.282Z,21.44
2023-05-12T10:45:04.097Z,21.50
2023-05-12T10:46:03.614Z,21.56
2023-05-12T10:47:04.406Z,21.56
2023-05-12T10:48:03.985Z,21.56
2023-05-12T10:50:04.416Z,21.56
2023-05-12T10:51:03.931Z,21.56
2023-05-12T10:52:03.624Z,21.50
2023-05-12T10:53:04.259Z,21.50
2023-05-12T10:54:03.925Z,21.50
2023-05-12T10:55:04.283Z,21.50
2023-05-12T10:57:04.169Z,21.31
2023-05-12T10:58:04.660Z,21.31
2023-05-12T10:59:04.669Z,21.31
2023-05-12T11:00:05.138Z,21.25
2023-05-12T11:02:05.434Z,21.25
2023-05-12T11:03:08.302Z,21.25
2023-05-12T11:04:04.601Z,21.25
2023-05-12T11:05:04.450Z,21.19
2023-05-12T11:06:04.764Z,21.19
2023-05-12T11:07:04.433Z,21.19
2023-05-12T11:08:04.693Z,21.19
2023-05-12T11:09:04.997Z,21.25
2023-05-12T11:10:05.034Z,21.25
2023-05-12T11:12:04.852Z,21.25
2023-05-12T11:14:03.798Z,21.31
2023-05-12T11:15:04.513Z,21.38
2023-05-12T11:16:04.024Z,21.50
2023-05-12T11:17:04.324Z,21.62
2023-05-12T11:18:03.948Z,21.75
2023-05-12T11:19:03.774Z,21.50
2023-05-12T11:20:03.769Z,21.56
2023-05-12T11:22:03.768Z,21.69
2023-05-12T11:23:04.334Z,21.50
2023-05-12T11:24:03.933Z,21.69
2023-05-12T11:25:03.941Z,21.62
2023-05-12T11:27:03.772Z,21.44
2023-05-12T11:30:03.974Z,21.31
2023-05-12T11:32:03.968Z,21.19
2023-05-12T11:33:03.961Z,21.12
2023-05-12T11:34:11.735Z,21.19
2023-05-12T11:35:04.238Z,21.25
2023-05-12T11:36:04.415Z,21.31
2023-05-12T11:37:04.093Z,21.38
2023-05-12T11:38:04.097Z,21.19
2023-05-12T11:39:03.689Z,21.31
2023-05-12T11:41:04.343Z,21.50
2023-05-12T11:42:11.928Z,21.50
2023-05-12T11:44:03.704Z,21.19
2023-05-12T11:45:03.686Z,21.19
2023-05-12T11:47:04.399Z,21.31
2023-05-12T11:49:04.081Z,21.44
2023-05-12T11:50:03.703Z,21.38
2023-05-12T11:51:04.180Z,21.31
2023-05-12T11:52:03.768Z,21.31
2023-05-12T11:53:04.404Z,21.25
2023-05-12T11:55:03.915Z,21.25
2023-05-12T11:56:03.780Z,21.19
2023-05-12T11:58:04.300Z,21.19
2023-05-12T12:00:03.550Z,21.38
2023-05-12T12:01:04.244Z,21.38
2023-05-12T12:02:04.024Z,21.31
2023-05-12T12:03:03.653Z,21.31
2023-05-12T12:04:04.295Z,21.31
2023-05-12T12:05:05.420Z,21.31
2023-05-12T12:08:03.945Z,21.44
2023-05-12T12:10:04.264Z,21.38
2023-05-12T12:11:04.005Z,21.44
2023-05-12T12:13:04.421Z,21.44
2023-05-12T12:14:03.848Z,21.50
2023-05-12T12:15:04.467Z,21.50
2023-05-12T12:17:04.113Z,21.69
2023-05-12T12:18:03.859Z,21.81
2023-05-12T12:19:04.020Z,21.88
2023-05-12T12:20:03.943Z,21.88
2023-05-12T12:22:03.687Z,21.69
2023-05-12T12:23:04.423Z,21.50
2023-05-12T12:24:04.500Z,21.62
2023-05-12T12:25:03.720Z,21.44
2023-05-12T12:26:04.284Z,21.50
2023-05-12T12:27:03.696Z,21.38
2023-05-12T12:28:04.450Z,21.31
2023-05-12T12:29:03.927Z,21.25
2023-05-12T12:30:03.933Z,21.12
2023-05-12T12:31:03.575Z,21.06
2023-05-12T12:32:04.331Z,21.00
2023-05-12T12:33:04.069Z,20.94
2023-05-12T12:34:03.713Z,20.94
2023-05-12T12:35:04.359Z,21.00
2023-05-12T12:36:04.026Z,21.00
2023-05-12T12:38:04.093Z,20.94
2023-05-12T12:39:03.691Z,21.00
2023-05-12T12:40:04.330Z,21.00
2023-05-12T12:41:04.026Z,21.00
2023-05-12T12:43:04.171Z,21.00
2023-05-12T12:45:04.405Z,20.94
2023-05-12T12:46:04.021Z,20.88
2023-05-12T12:48:04.077Z,20.75
2023-05-12T12:49:03.696Z,20.75
2023-05-12T12:50:03.861Z,20.69
2023-05-12T12:51:04.425Z,20.69
2023-05-12T12:53:03.697Z,20.75
2023-05-12T12:54:04.491Z,20.56
2023-05-12T12:55:04.258Z,20.44
2023-05-12T12:56:03.847Z,20.25
2023-05-12T12:57:03.540Z,20.19
2023-05-12T12:58:04.091Z,20.06
2023-05-12T13:00:03.808Z,19.88
2023-05-12T13:02:03.633Z,19.88
2023-05-12T13:03:03.855Z,19.69
2023-05-12T13:05:04.268Z,19.69
2023-05-12T13:07:04.249Z,19.62
2023-05-12T13:09:03.770Z,19.81
2023-05-12T13:11:04.260Z,19.88
2023-05-12T13:12:04.492Z,20.00
2023-05-12T13:13:04.414Z,20.00
2023-05-12T13:14:04.000Z,20.00
2023-05-12T13:15:04.435Z,20.06
2023-05-12T13:17:04.120Z,20.06
2023-05-12T13:18:03.905Z,20.12
2023-05-12T13:19:04.429Z,20.19
2023-05-12T13:20:03.765Z,20.19
2023-05-12T13:21:05.214Z,20.25
2023-05-12T13:23:03.875Z,20.31
2023-05-12T13:24:04.502Z,20.31
2023-05-12T13:27:03.952Z,20.50
2023-05-12T13:31:03.878Z,20.31
2023-05-12T13:33:05.784Z,20.31
2023-05-12T13:35:04.997Z,20.56
2023-05-12T13:37:03.706Z,20.50
2023-05-12T13:38:03.763Z,20.50
2023-05-12T13:42:04.185Z,20.56
2023-05-12T13:44:04.339Z,20.62
2023-05-12T13:46:03.764Z,20.56
2023-05-12T13:47:04.331Z,20.56
2023-05-12T13:49:03.973Z,20.50
2023-05-12T13:51:04.244Z,20.56
2023-05-12T13:53:03.603Z,20.44
2023-05-12T13:54:03.697Z,20.50
2023-05-12T13:55:03.540Z,20.50
2023-05-12T13:56:04.094Z,20.56
2023-05-12T13:57:03.780Z,20.62
2023-05-12T13:59:04.247Z,20.62
2023-05-12T14:01:03.856Z,20.81
2023-05-12T14:02:04.218Z,20.81
2023-05-12T14:03:03.748Z,20.88
2023-05-12T14:04:03.537Z,20.88
2023-05-12T14:05:03.662Z,20.75
2023-05-12T14:06:03.935Z,20.69
2023-05-12T14:07:03.531Z,20.69
2023-05-12T14:09:04.317Z,20.44
2023-05-12T14:11:03.904Z,20.31
2023-05-12T14:12:04.011Z,20.19
2023-05-12T14:14:03.628Z,20.12
2023-05-12T14:15:19.637Z,20.06
2023-05-12T14:17:04.483Z,20.06
2023-05-12T14:19:04.409Z,20.12
2023-05-12T14:20:03.997Z,20.06
2023-05-12T14:22:09.911Z,20.12
2023-05-12T14:23:03.687Z,20.19
2023-05-12T14:24:04.253Z,20.31
2023-05-12T14:25:03.801Z,20.44
2023-05-12T14:26:04.499Z,20.56
2023-05-12T14:27:04.037Z,20.62
2023-05-12T14:28:03.704Z,20.56
2023-05-12T14:29:03.627Z,20.62
2023-05-12T14:30:04.299Z,20.62
2023-05-12T14:31:04.007Z,20.56
2023-05-12T14:32:04.071Z,20.56
2023-05-12T14:34:04.098Z,20.44
2023-05-12T14:36:07.733Z,20.38
2023-05-12T14:37:03.843Z,20.31
2023-05-12T14:39:04.001Z,20.31
2023-05-12T14:40:04.057Z,20.56
2023-05-12T14:42:03.857Z,20.62
2023-05-12T14:44:03.553Z,20.69
2023-05-12T14:46:03.942Z,20.69
2023-05-12T14:48:04.355Z,20.88
2023-05-12T14:49:04.169Z,20.88
2023-05-12T14:50:03.780Z,20.88
2023-05-12T14:52:04.260Z,21.00
2023-05-12T14:53:05.152Z,20.94
2023-05-12T14:54:05.186Z,20.94
2023-05-12T14:56:04.360Z,20.94
2023-05-12T14:57:03.928Z,20.88
2023-05-12T14:59:04.259Z,20.81
2023-05-12T15:00:04.002Z,20.88
2023-05-12T15:02:03.732Z,21.00
2023-05-12T15:03:03.900Z,20.94
2023-05-12T15:05:03.770Z,20.88
2023-05-12T15:06:06.700Z,20.88
2023-05-12T15:07:03.855Z,20.88
2023-05-12T15:08:03.771Z,20.94
2023-05-12T15:11:04.046Z,20.81
2023-05-12T15:12:04.102Z,20.81
2023-05-12T15:13:04.254Z,20.75
2023-05-12T15:14:04.419Z,20.88
2023-05-12T15:16:03.768Z,20.81
2023-05-12T15:17:04.017Z,20.81
2023-05-12T15:18:03.718Z,21.00
2023-05-12T15:19:03.892Z,21.06
2023-05-12T15:21:03.632Z,21.19
2023-05-12T15:22:03.538Z,21.19
2023-05-12T15:23:03.797Z,21.19
2023-05-12T15:26:15.332Z,21.25
2023-05-12T15:27:04.089Z,21.12
2023-05-12T15:29:03.864Z,21.00
2023-05-12T15:30:04.509Z,21.00
2023-05-12T15:32:04.185Z,21.00
2023-05-12T15:35:04.407Z,20.94
2023-05-12T15:36:04.015Z,21.06
2023-05-12T15:39:03.928Z,20.88
2023-05-12T15:40:04.049Z,20.81
2023-05-12T15:41:04.506Z,20.88
2023-05-12T15:42:04.333Z,20.81
2023-05-12T15:45:03.798Z,20.81
2023-05-12T15:46:04.474Z,20.81
2023-05-12T15:47:04.266Z,20.88
2023-05-12T15:49:03.694Z,21.00
2023-05-12T15:51:04.138Z,20.88
2023-05-12T15:54:04.797Z,20.69
2023-05-12T15:55:04.010Z,20.69
2023-05-12T15:57:03.965Z,20.56
2023-05-12T15:58:03.956Z,20.56
2023-05-12T16:01:04.190Z,20.44
2023-05-12T16:03:04.022Z,20.38
2023-05-12T16:04:04.376Z,20.44
2023-05-12T16:08:03.688Z,20.44
2023-05-12T16:12:04.335Z,20.38
2023-05-12T16:13:04.344Z,20.44
2023-05-12T16:15:03.795Z,20.44
2023-05-12T16:17:04.615Z,20.38
2023-05-12T16:22:03.688Z,20.50
2023-05-12T16:23:04.337Z,20.56
2023-05-12T16:26:03.768Z,20.56
2023-05-12T16:31:04.206Z,20.38
2023-05-12T16:33:04.132Z,20.25
2023-05-12T16:36:03.964Z,20.38
2023-05-12T16:38:03.626Z,20.50
2023-05-12T16:40:04.035Z,20.62
2023-05-12T16:41:04.102Z,20.56
2023-05-12T16:45:03.998Z,20.50
2023-05-12T16:48:04.029Z,20.69
2023-05-12T16:51:04.888Z,20.69
2023-05-12T16:53:08.977Z,20.62
2023-05-12T16:55:04.071Z,20.50
2023-05-12T17:03:09.123Z,20.50
2023-05-12T17:06:04.155Z,20.38
2023-05-12T17:07:03.933Z,20.44
2023-05-12T17:08:03.942Z,20.44
2023-05-12T17:09:03.699Z,20.38
2023-05-12T17:10:04.260Z,20.44
2023-05-12T17:12:04.202Z,20.50
2023-05-12T17:13:03.773Z,20.44
2023-05-12T17:15:07.859Z,20.44
2023-05-12T17:16:03.968Z,20.44
2023-05-12T17:17:03.605Z,20.44
2023-05-12T17:18:03.867Z,20.56
2023-05-12T17:20:04.070Z,20.50
2023-05-12T17:21:04.105Z,20.38
2023-05-12T17:23:04.413Z,20.31
2023-05-12T17:24:04.097Z,20.31